createdAt,value
2023-01-27T00:01:17.954Z,12.60
2023-01-27T00:06:20.836Z,12.57
2023-01-27T00:11:42.185Z,11.50
2023-01-27T00:16:44.032Z,12.03
2023-01-27T00:22:05.254Z,11.60
2023-01-27T00:27:10.893Z,11.00
2023-01-27T00:32:30.738Z,11.93
2023-01-27T00:37:33.058Z,10.63
2023-01-27T00:42:36.843Z,11.00
2023-01-27T00:47:39.088Z,11.87
2023-01-27T00:52:41.269Z,11.90
2023-01-27T00:57:45.101Z,12.97
2023-01-27T01:02:47.242Z,12.13
2023-01-27T01:07:49.552Z,12.43
2023-01-27T01:12:53.364Z,11.83
2023-01-27T01:17:55.392Z,12.00
2023-01-27T01:22:57.962Z,11.47
2023-01-27T01:28:01.405Z,10.47
2023-01-27T01:33:03.995Z,11.00
2023-01-27T01:38:06.472Z,10.57
2023-01-27T01:43:14.729Z,10.77
2023-01-27T01:48:20.977Z,10.07
2023-01-27T01:53:27.465Z,10.70
2023-01-27T01:58:31.464Z,10.07
2023-01-27T02:03:35.538Z,10.33
2023-01-27T02:08:41.373Z,9.60
2023-01-27T02:13:45.692Z,10.93
2023-01-27T02:18:47.756Z,10.27
2023-01-27T02:24:01.197Z,9.90
2023-01-27T02:29:09.412Z,10.13
2023-01-27T02:34:16.101Z,9.20
2023-01-27T02:39:21.390Z,10.63
2023-01-27T02:44:25.352Z,10.17
2023-01-27T02:49:27.658Z,9.53
2023-01-27T02:54:31.604Z,11.00
2023-01-27T02:59:35.056Z,11.83
2023-01-27T03:04:38.987Z,10.40
2023-01-27T03:09:41.269Z,11.23
2023-01-27T03:15:02.805Z,10.10
2023-01-27T03:20:05.292Z,10.27
2023-01-27T03:25:08.842Z,10.33
2023-01-27T03:30:13.429Z,8.93
2023-01-27T03:35:16.609Z,8.70
2023-01-27T03:40:36.308Z,8.33
2023-01-27T03:45:57.780Z,9.90
2023-01-27T03:51:00.507Z,8.17
2023-01-27T03:56:02.656Z,8.47
2023-01-27T04:01:08.534Z,8.70
2023-01-27T04:06:30.281Z,9.40
2023-01-27T04:11:50.110Z,9.30
2023-01-27T04:16:55.111Z,8.83
2023-01-27T04:21:58.241Z,8.10
2023-01-27T04:27:01.960Z,8.73
2023-01-27T04:32:07.285Z,8.87
2023-01-27T04:37:10.604Z,8.93
2023-01-27T04:42:12.819Z,9.07
2023-01-27T04:47:16.659Z,9.23
2023-01-27T04:52:18.873Z,10.30
2023-01-27T04:57:21.500Z,10.57
2023-01-27T05:02:26.636Z,9.57
2023-01-27T05:07:29.994Z,10.20
2023-01-27T05:12:33.508Z,9.53
2023-01-27T05:17:37.387Z,9.90
2023-01-27T05:22:39.732Z,10.53
2023-01-27T05:27:42.025Z,11.37
2023-01-27T05:32:45.683Z,11.13
2023-01-27T05:37:47.775Z,10.10
2023-01-27T05:42:52.442Z,9.20
2023-01-27T05:47:55.945Z,9.60
2023-01-27T05:52:57.944Z,9.83
2023-01-27T05:58:00.432Z,9.93
2023-01-27T06:03:04.194Z,9.67
2023-01-27T06:08:10.567Z,10.00
2023-01-27T06:13:13.474Z,10.17
2023-01-27T06:18:19.254Z,11.10
2023-01-27T06:23:23.963Z,10.33
2023-01-27T06:28:29.563Z,10.63
2023-01-27T06:33:33.495Z,10.50
2023-01-27T06:38:36.185Z,9.90
2023-01-27T06:43:39.749Z,8.97
2023-01-27T06:48:43.440Z,9.53
2023-01-27T06:53:45.610Z,9.20
2023-01-27T06:58:47.899Z,8.37
2023-01-27T07:03:51.716Z,8.80
2023-01-27T07:08:54.835Z,8.27
2023-01-27T07:13:57.874Z,9.10
2023-01-27T07:19:01.701Z,8.10
2023-01-27T07:24:03.921Z,8.80
2023-01-27T07:29:06.077Z,8.83
2023-01-27T07:34:09.946Z,9.80
2023-01-27T07:39:12.027Z,8.80
2023-01-27T07:44:14.632Z,10.50
2023-01-27T07:49:18.300Z,9.57
2023-01-27T07:54:20.521Z,9.67
2023-01-27T07:59:22.801Z,8.83
2023-01-27T08:04:26.713Z,8.70
2023-01-27T08:09:29.303Z,8.57
2023-01-27T08:14:31.480Z,9.07
2023-01-27T08:19:35.264Z,9.63
2023-01-27T08:24:37.591Z,8.80
2023-01-27T08:29:39.731Z,8.63
2023-01-27T08:34:43.697Z,7.83
2023-01-27T08:39:45.800Z,9.33
2023-01-27T08:44:47.598Z,8.43
2023-01-27T08:49:51.426Z,8.10
2023-01-27T08:54:53.518Z,7.83
2023-01-27T08:59:55.807Z,8.57
2023-01-27T09:04:59.879Z,7.60
2023-01-27T09:10:13.800Z,7.07
2023-01-27T09:15:17.203Z,7.43
2023-01-27T09:20:22.703Z,7.40
2023-01-27T09:25:25.006Z,6.90
2023-01-27T09:30:28.727Z,7.20
2023-01-27T09:35:40.114Z,7.73
2023-01-27T09:40:56.540Z,7.40
2023-01-27T09:46:12.394Z,6.73
2023-01-27T09:51:22.680Z,7.63
2023-01-27T09:56:39.052Z,6.83
2023-01-27T10:01:50.251Z,7.37
2023-01-27T10:07:13.003Z,7.53
2023-01-27T10:12:31.954Z,7.83
2023-01-27T10:17:44.333Z,6.97
2023-01-27T10:22:59.035Z,7.80
2023-01-27T10:28:08.354Z,7.63
2023-01-27T10:33:18.773Z,6.97
2023-01-27T10:38:36.370Z,6.97
2023-01-27T10:43:50.779Z,6.60
2023-01-27T10:48:57.972Z,7.53
2023-01-27T10:54:07.154Z,7.03
2023-01-27T10:59:16.483Z,7.17
2023-01-27T11:04:29.369Z,6.03
2023-01-27T11:09:36.687Z,6.60
2023-01-27T11:14:46.663Z,7.67
2023-01-27T11:19:57.855Z,7.30
2023-01-27T11:25:09.148Z,7.33
2023-01-27T11:30:18.067Z,6.87
2023-01-27T11:35:20.613Z,6.23
2023-01-27T11:40:30.715Z,6.43
2023-01-27T11:45:37.472Z,7.33
2023-01-27T11:50:39.736Z,7.07
2023-01-27T11:55:47.817Z,7.30
2023-01-27T12:00:54.915Z,7.40
2023-01-27T12:06:01.479Z,6.93
2023-01-27T12:11:22.840Z,6.70
2023-01-27T12:16:28.671Z,4.03
2023-01-27T12:21:45.780Z,3.70
2023-01-27T12:26:49.377Z,3.53
2023-01-27T12:31:54.505Z,4.40
2023-01-27T12:36:57.803Z,4.37
2023-01-27T12:42:01.264Z,4.80
2023-01-27T12:47:05.816Z,5.10
2023-01-27T12:52:17.116Z,4.07
2023-01-27T12:57:26.199Z,3.60
2023-01-27T13:02:32.377Z,3.50
2023-01-27T13:07:43.629Z,3.30
2023-01-27T13:12:55.305Z,3.63
2023-01-27T13:17:58.404Z,3.50
2023-01-27T13:23:04.732Z,3.50
2023-01-27T13:28:09.973Z,2.83
2023-01-27T13:33:27.267Z,3.30
2023-01-27T13:38:38.062Z,3.30
2023-01-27T13:43:45.647Z,2.90
2023-01-27T13:48:53.370Z,3.27
2023-01-27T13:54:00.536Z,4.10
2023-01-27T13:59:15.709Z,3.50
2023-01-27T14:04:50.249Z,3.30
2023-01-27T14:10:06.057Z,3.43
2023-01-27T14:15:24.626Z,3.57
2023-01-27T14:20:47.177Z,3.87
2023-01-27T14:26:01.331Z,4.77
2023-01-27T14:31:10.951Z,3.90
2023-01-27T14:36:21.510Z,3.97
2023-01-27T14:41:29.001Z,3.93
2023-01-27T14:46:48.084Z,4.50
2023-01-27T14:51:56.028Z,3.60
2023-01-27T14:57:16.728Z,4.13
2023-01-27T15:02:38.407Z,4.50
2023-01-27T15:07:48.245Z,4.40
2023-01-27T15:13:23.821Z,4.80
2023-01-27T15:18:59.209Z,4.23
2023-01-27T15:24:25.821Z,4.17
2023-01-27T15:29:30.925Z,3.97
2023-01-27T15:34:34.510Z,4.20
2023-01-27T15:40:03.882Z,4.40
2023-01-27T15:45:26.297Z,3.80
2023-01-27T15:50:33.289Z,4.63
2023-01-27T15:55:38.776Z,3.87
2023-01-27T16:00:42.986Z,3.87
2023-01-27T16:05:51.324Z,4.30
2023-01-27T16:10:53.576Z,4.17
2023-01-27T16:16:30.388Z,4.17
2023-01-27T16:21:45.266Z,4.07
2023-01-27T16:26:51.726Z,4.07
2023-01-27T16:31:58.978Z,4.17
2023-01-27T16:37:15.417Z,4.50
2023-01-27T16:42:18.740Z,4.63
2023-01-27T16:47:26.615Z,4.47
2023-01-27T16:52:41.734Z,4.93
2023-01-27T16:57:47.304Z,4.97
2023-01-27T17:02:51.457Z,4.80
2023-01-27T17:08:14.997Z,5.17
2023-01-27T17:13:32.186Z,6.40
2023-01-27T17:18:51.764Z,5.57
2023-01-27T17:24:02.001Z,5.43
2023-01-27T17:29:05.246Z,6.23
2023-01-27T17:34:11.331Z,6.70
2023-01-27T17:39:26.492Z,8.70
2023-01-27T17:44:29.189Z,6.57
2023-01-27T17:49:33.383Z,10.00
2023-01-27T17:54:39.282Z,7.43
2023-01-27T17:59:45.828Z,7.40
2023-01-27T18:04:49.303Z,7.70
2023-01-27T18:09:56.902Z,7.63
2023-01-27T18:14:59.559Z,7.83
2023-01-27T18:20:02.263Z,7.87
2023-01-27T18:25:18.186Z,8.83
2023-01-27T18:30:24.630Z,8.77
2023-01-27T18:35:30.313Z,6.90
2023-01-27T18:40:36.110Z,9.13
2023-01-27T18:45:42.328Z,8.90
2023-01-27T18:50:50.128Z,8.33
2023-01-27T18:55:55.225Z,8.87
2023-01-27T19:01:00.028Z,8.50
2023-01-27T19:06:03.690Z,8.43
2023-01-27T19:11:08.372Z,10.47
2023-01-27T19:16:16.677Z,11.73
2023-01-27T19:21:19.364Z,12.43
2023-01-27T19:26:24.991Z,9.33
2023-01-27T19:31:28.588Z,9.67
2023-01-27T19:36:35.441Z,8.50
2023-01-27T19:41:40.492Z,9.20
2023-01-27T19:46:44.597Z,8.20
2023-01-27T19:51:48.435Z,8.67
2023-01-27T19:56:53.783Z,8.57
2023-01-27T20:01:59.463Z,9.60
2023-01-27T20:07:03.608Z,9.87
2023-01-27T20:12:15.871Z,9.23
2023-01-27T20:17:20.389Z,10.83
2023-01-27T20:22:23.556Z,11.47
2023-01-27T20:27:28.318Z,10.90
2023-01-27T20:32:35.087Z,9.50
2023-01-27T20:37:43.907Z,11.77
2023-01-27T20:42:54.514Z,10.57
2023-01-27T20:47:59.860Z,12.10
2023-01-27T20:53:04.947Z,15.07
2023-01-27T20:58:09.626Z,13.77
2023-01-27T21:03:12.375Z,11.80
2023-01-27T21:08:15.285Z,11.67
2023-01-27T21:13:19.695Z,9.83
2023-01-27T21:18:23.180Z,9.87
2023-01-27T21:23:27.038Z,13.07
2023-01-27T21:28:31.569Z,9.17
2023-01-27T21:33:36.370Z,9.37
2023-01-27T21:38:39.147Z,7.23
2023-01-27T21:44:01.050Z,8.70
2023-01-27T21:49:24.678Z,7.90
2023-01-27T21:55:14.542Z,8.60
2023-01-27T22:00:21.628Z,8.83
2023-01-27T22:05:24.791Z,8.03
2023-01-27T22:10:28.773Z,10.83
2023-01-27T22:15:33.530Z,10.60
2023-01-27T22:20:36.196Z,8.67
2023-01-27T22:25:38.214Z,9.23
2023-01-27T22:30:42.384Z,8.43
2023-01-27T22:35:44.692Z,8.57
2023-01-27T22:40:46.964Z,8.93
2023-01-27T22:45:51.136Z,8.50
2023-01-27T22:50:52.934Z,8.30
2023-01-27T22:56:00.123Z,9.90
2023-01-27T23:01:06.748Z,9.17
2023-01-27T23:06:10.041Z,9.57
2023-01-27T23:11:12.428Z,8.73
2023-01-27T23:16:17.704Z,8.33
2023-01-27T23:21:19.860Z,8.73
2023-01-27T23:26:22.121Z,9.00
2023-01-27T23:31:25.972Z,9.13
2023-01-27T23:36:28.961Z,8.53
2023-01-27T23:41:31.262Z,7.97
2023-01-27T23:46:34.841Z,7.33
2023-01-27T23:51:37.139Z,8.17
2023-01-27T23:56:39.671Z,7.77
